ADDS METAR Data INFO
IDs: Format: Raw Decoded Include TAF

Data at: 2114 UTC 22 Oct 2017

KPBF 222053Z AUTO 30005KT 10SM OVC040 18/15 A3001 RMK AO2 SLP160 T01780150 50000 $
KPBF 221953Z AUTO 32006KT 10SM FEW022 OVC035 18/14 A3002 RMK AO2 SLP164 T01830144 $
KPBF 221933Z AUTO 30006KT 10SM BKN031 OVC038 18/14 A3001 RMK AO2 T01830144 $
KPBF 221853Z AUTO 28008KT 10SM FEW017 BKN024 19/14 A3003 RMK AO2 SLP167 T01890144 $
KPBF 221753Z AUTO 00000KT 10SM SCT013 BKN019 OVC120 18/14 A3001 RMK AO2 PRESFR SLP160 60002 T01780144 10183 20156 58010 $
KPBF 221653Z AUTO 25009KT 10SM SCT012 OVC019 18/15 A3005 RMK AO2 SLP175 T01780150 $
KPBF 221649Z AUTO 24012KT 10SM SCT012 OVC019 18/15 A3006 RMK AO2 $
KPBF 221637Z AUTO 25009KT 10SM BKN012 OVC100 17/15 A3006 RMK AO2 T01720150 $
KPBF 221553Z AUTO VRB03KT 10SM FEW007 SCT110 17/15 A3004 RMK AO2 SLP170 T01720150 $
KPBF 221522Z AUTO 25003KT 10SM FEW007 SCT021 OVC100 16/15 A3006 RMK AO2 T01610150 $
KPBF 221509Z AUTO 25004KT 10SM SCT007 BKN020 OVC110 16/15 A3006 RMK AO2 T01610150 $
KPBF 221453Z AUTO 27006KT 10SM BKN007 OVC019 16/15 A3007 RMK AO2 SLP180 60002 T01560150 53011 $
KPBF 221404Z AUTO 25007KT 10SM BKN005 BKN019 OVC095 16/15 A3005 RMK AO2 T01610150 $
KPBF 221353Z AUTO 22006KT 10SM SCT005 BKN019 OVC090 16/15 A3004 RMK AO2 SLP170 T01560150 $
KPBF 221253Z AUTO 23009KT FEW007 FEW060 OVC090 16/15 A3004 RMK AO2 RAE05 SLP171 P0002 T01560150 $
KPBF 221153Z AUTO 27004KT -RA SCT070 OVC090 16/15 A3004 RMK AO2 LTG DSNT NE AND E RAB05 SLP169 P0010 60053 70053 T01560150 10239 20156 51032 $
KPBF 221053Z AUTO 31010KT 10SM BKN045 OVC065 16/15 A3002 RMK AO2 PK WND 31032/1010 WSHFT 0958 LTG DSNT ALQDS RAB07E53 TSB13E34 SLP162 P0043 T01560150
KPBF 221048Z AUTO 32010KT 9SM -RA FEW031 BKN042 OVC065 16/14 A3002 RMK AO2 PK WND 31032/1010 WSHFT 0958 LTG DSNT ALQDS RAB07 TSB13E34 P0043
KPBF 221040Z AUTO 32009G19KT 4SM VCTS -RA BR FEW022 BKN032 OVC060 16/15 A3001 RMK AO2 PK WND 31032/1010 WSHFT 0958 LTG DSNT ALQDS RAB07 TSB13E34 P0042 T01560150
KPBF 221034Z AUTO 32013G20KT 2SM VCTS +RA BR FEW015 OVC026 16/15 A3002 RMK AO2 PK WND 31032/1010 WSHFT 0958 LTG DSNT ALQDS RAB07 TSB13E34 P0042 T01560150
KPBF 221018Z AUTO 31018G32KT 1 3/4SM +TSRA BR SCT013 BKN026 OVC038 17/15 A3001 RMK AO2 PK WND 31032/1010 WSHFT 0958 LTG DSNT ALQDS RAB07 TSB13 PRESRR P0019 T01670150
KPBF 221013Z AUTO 31020G32KT 5SM TSRA BR SCT019 BKN027 OVC038 17/15 A2998 RMK AO2 PK WND 31032/1010 WSHFT 0958 LTG DSNT ALQDS RAB07 TSB13 PRESRR P0005 T01720150
KPBF 221008Z AUTO 29024G30KT 8SM VCTS -RA SCT017 BKN029 OVC038 19/17 A2996 RMK AO2 PK WND 30030/1007 WSHFT 0954 LTG DSNT ALQDS RAB07 P0001 T01940172
KPBF 220953Z AUTO 16009KT 10SM FEW029 BKN038 OVC100 22/21 A2994 RMK AO2 LTG DSNT W AND NW SLP136 T02220206
KPBF 220853Z AUTO 19008KT 10SM FEW016 SCT040 OVC075 23/21 A2997 RMK AO2 SLP145 T02280206 55003
KPBF 220841Z AUTO 19011KT 10SM SCT016 SCT021 OVC070 23/21 A2997 RMK AO2 T02330206
KPBF 220826Z AUTO 18009KT 10SM BKN018 23/21 A2996 RMK AO2 T02330206
KPBF 220818Z AUTO 19010KT 10SM SCT018 23/21 A2997 RMK AO2 T02330206
KPBF 220753Z AUTO 18013G20KT 10SM SCT020 BKN025 BKN033 23/21 A2996 RMK AO2 SLP143 T02330206
KPBF 220717Z AUTO 17013G22KT 10SM FEW019 BKN027 OVC031 24/21 A2995 RMK AO2 T02390206
KPBF 220703Z AUTO 17013G19KT 10SM FEW017 BKN030 23/21 A2995 RMK AO2 T02330206
KPBF 220653Z AUTO 18011KT 10SM FEW018 BKN028 23/21 A2996 RMK AO2 SLP142 T02330206
KPBF 220553Z AUTO 17013KT 10SM OVC018 24/21 A2998 RMK AO2 SLP148 T02390206 10250 20228 402890161 56007
KPBF 220542Z AUTO 17012G21KT 10SM BKN017 23/21 A2998 RMK AO2 T02330206
KPBF 220453Z AUTO 16018KT 10SM CLR 23/21 A2998 RMK AO2 SLP149 T02330206
KPBF 220353Z AUTO 15011G21KT 10SM CLR 23/20 A2999 RMK AO2 SLP153 T02330200
KPBF 220253Z AUTO 15012KT 10SM SCT044 23/19 A3000 RMK AO2 SLP156 T02280194 51004
KPBF 220153Z AUTO 14006KT 10SM CLR 23/20 A2999 RMK AO2 SLP153 T02280200
KPBF 220053Z AUTO 15007KT 10SM SCT060 OVC080 24/20 A3001 RMK AO2 SLP159 T02390200
KPBF 212353Z AUTO 15011KT 10SM FEW047 SCT055 BKN075 25/19 A2999 RMK AO2 SLP153 T02500194 10289 20250 55000
KPBF 212253Z AUTO 15010KT 10SM CLR 27/19 A2997 RMK AO2 LTG DSNT S SLP146 T02720194
KPBF 212153Z AUTO 17011KT 10SM FEW040 BKN048 OVC100 28/19 A2998 RMK AO2 LTG DSNT SE AND S SLP148 T02830189
KPBF 212053Z AUTO 16010KT 10SM FEW055 SCT070 BKN090 28/19 A2999 RMK AO2 SLP152 T02830189 56017
KPBF 211953Z AUTO 18013G18KT 10SM SCT036 29/19 A2999 RMK AO2 SLP154 T02890194
KPBF 211853Z AUTO 19010G18KT 10SM FEW048 BKN090 27/19 A3001 RMK AO2 SLP160 T02670194
KPBF 211753Z AUTO 17012KT 10SM BKN035 BKN090 27/19 A3004 RMK AO2 SLP170 T02670194 10272 20183 58009
KPBF 211702Z AUTO 17014KT 10SM SCT031 SCT060 OVC080 27/19 A3005 RMK AO2 T02670194
KPBF 211653Z AUTO 17012G19KT 10SM BKN029 BKN060 BKN080 27/19 A3005 RMK AO2 SLP173 T02670194
KPBF 211553Z AUTO 17012KT 10SM SCT025 26/19 A3006 RMK AO2 SLP176 T02560194
KPBF 211453Z AUTO 15013KT 10SM FEW034 22/18 A3007 RMK AO2 SLP179 T02170183 50002
KPBF 211353Z AUTO 14006KT 10SM FEW055 SCT090 BKN110 19/17 A3008 RMK AO2 SLP183 T01940172
KPBF 211253Z AUTO 13004KT 10SM FEW026 BKN110 19/16 A3007 RMK AO2 SLP181 T01890161
KPBF 211153Z AUTO 14005KT 10SM OVC120 19/16 A3006 RMK AO2 SLP177 T01890161 10189 20161 53008
KPBF 211053Z AUTO 14006KT 10SM BKN120 19/16 A3004 RMK AO2 SLP172 T01890156
KPBF 210953Z AUTO 13005KT 10SM SCT120 18/15 A3003 RMK AO2 SLP167 T01780150